sensor_id;sensor_type;location;lat;lon;timestamp;P1;durP1;ratioP1;P2;durP2;ratioP2
37303;SDS011;23188;51.188;16.374;2023-03-01T00:01:31;104.00;;;63.70;;
37303;SDS011;23188;51.188;16.374;2023-03-01T00:05:35;110.50;;;58.60;;
37303;SDS011;23188;51.188;16.374;2023-03-01T00:09:38;119.80;;;66.50;;
37303;SDS011;23188;51.188;16.374;2023-03-01T00:13:42;123.00;;;65.20;;
37303;SDS011;23188;51.188;16.374;2023-03-01T00:17:47;129.70;;;66.20;;
37303;SDS011;23188;51.188;16.374;2023-03-01T00:21:49;113.20;;;67.60;;
37303;SDS011;23188;51.188;16.374;2023-03-01T00:25:53;133.80;;;73.30;;
37303;SDS011;23188;51.188;16.374;2023-03-01T00:29:57;170.20;;;85.10;;
37303;SDS011;23188;51.188;16.374;2023-03-01T00:34:04;161.50;;;84.20;;
37303;SDS011;23188;51.188;16.374;2023-03-01T00:38:08;136.10;;;75.90;;
37303;SDS011;23188;51.188;16.374;2023-03-01T00:42:11;139.10;;;78.30;;
37303;SDS011;23188;51.188;16.374;2023-03-01T00:46:16;159.40;;;77.70;;
37303;SDS011;23188;51.188;16.374;2023-03-01T00:50:21;142.10;;;79.90;;
37303;SDS011;23188;51.188;16.374;2023-03-01T00:54:26;161.50;;;87.10;;
37303;SDS011;23188;51.188;16.374;2023-03-01T00:58:29;144.30;;;86.20;;
37303;SDS011;23188;51.188;16.374;2023-03-01T01:02:33;164.60;;;88.00;;
37303;SDS011;23188;51.188;16.374;2023-03-01T01:06:37;147.30;;;79.80;;
37303;SDS011;23188;51.188;16.374;2023-03-01T01:10:45;108.60;;;58.70;;
37303;SDS011;23188;51.188;16.374;2023-03-01T01:14:49;93.30;;;53.10;;
37303;SDS011;23188;51.188;16.374;2023-03-01T01:18:52;128.80;;;67.80;;
37303;SDS011;23188;51.188;16.374;2023-03-01T01:22:56;115.20;;;66.60;;
37303;SDS011;23188;51.188;16.374;2023-03-01T01:27:00;140.00;;;84.50;;
37303;SDS011;23188;51.188;16.374;2023-03-01T01:31:04;143.20;;;88.10;;
37303;SDS011;23188;51.188;16.374;2023-03-01T01:35:08;145.40;;;83.80;;
37303;SDS011;23188;51.188;16.374;2023-03-01T01:39:11;105.90;;;63.50;;
37303;SDS011;23188;51.188;16.374;2023-03-01T01:43:33;109.00;;;58.20;;
37303;SDS011;23188;51.188;16.374;2023-03-01T01:47:38;96.10;;;56.70;;
37303;SDS011;23188;51.188;16.374;2023-03-01T01:51:44;106.50;;;59.20;;
37303;SDS011;23188;51.188;16.374;2023-03-01T01:55:54;102.20;;;59.40;;
37303;SDS011;23188;51.188;16.374;2023-03-01T02:00:03;92.00;;;55.70;;
37303;SDS011;23188;51.188;16.374;2023-03-01T02:04:09;107.00;;;57.80;;
37303;SDS011;23188;51.188;16.374;2023-03-01T02:08:14;96.50;;;56.80;;
37303;SDS011;23188;51.188;16.374;2023-03-01T02:12:21;105.40;;;57.90;;
37303;SDS011;23188;51.188;16.374;2023-03-01T02:16:27;92.50;;;54.10;;
37303;SDS011;23188;51.188;16.374;2023-03-01T02:20:37;92.10;;;53.40;;
37303;SDS011;23188;51.188;16.374;2023-03-01T02:24:50;85.70;;;51.70;;
37303;SDS011;23188;51.188;16.374;2023-03-01T02:28:56;91.40;;;54.50;;
37303;SDS011;23188;51.188;16.374;2023-03-01T02:33:00;94.40;;;57.40;;
37303;SDS011;23188;51.188;16.374;2023-03-01T02:37:08;84.20;;;58.00;;
37303;SDS011;23188;51.188;16.374;2023-03-01T02:41:17;99.60;;;55.30;;
37303;SDS011;23188;51.188;16.374;2023-03-01T02:45:24;103.40;;;58.70;;
37303;SDS011;23188;51.188;16.374;2023-03-01T02:49:29;100.50;;;57.90;;
37303;SDS011;23188;51.188;16.374;2023-03-01T02:57:52;98.70;;;61.80;;
37303;SDS011;23188;51.188;16.374;2023-03-01T03:02:00;104.70;;;61.50;;
37303;SDS011;23188;51.188;16.374;2023-03-01T03:06:04;114.60;;;61.40;;
37303;SDS011;23188;51.188;16.374;2023-03-01T03:10:09;94.30;;;55.60;;
37303;SDS011;23188;51.188;16.374;2023-03-01T03:14:22;78.60;;;46.20;;
37303;SDS011;23188;51.188;16.374;2023-03-01T03:18:26;108.50;;;63.40;;
37303;SDS011;23188;51.188;16.374;2023-03-01T03:22:29;115.70;;;63.40;;
37303;SDS011;23188;51.188;16.374;2023-03-01T03:26:33;107.60;;;63.00;;
37303;SDS011;23188;51.188;16.374;2023-03-01T03:30:38;98.90;;;58.30;;
37303;SDS011;23188;51.188;16.374;2023-03-01T03:34:42;95.70;;;55.10;;
37303;SDS011;23188;51.188;16.374;2023-03-01T03:38:46;78.10;;;49.80;;
37303;SDS011;23188;51.188;16.374;2023-03-01T03:42:50;96.50;;;58.10;;
37303;SDS011;23188;51.188;16.374;2023-03-01T03:46:53;102.70;;;60.80;;
37303;SDS011;23188;51.188;16.374;2023-03-01T03:50:57;103.80;;;63.90;;
37303;SDS011;23188;51.188;16.374;2023-03-01T03:55:02;98.80;;;56.30;;
37303;SDS011;23188;51.188;16.374;2023-03-01T03:59:06;96.30;;;56.00;;
37303;SDS011;23188;51.188;16.374;2023-03-01T04:03:10;111.20;;;60.90;;
37303;SDS011;23188;51.188;16.374;2023-03-01T04:07:15;96.20;;;55.80;;
37303;SDS011;23188;51.188;16.374;2023-03-01T04:11:19;91.70;;;56.70;;
37303;SDS011;23188;51.188;16.374;2023-03-01T04:15:31;92.40;;;56.30;;
37303;SDS011;23188;51.188;16.374;2023-03-01T04:19:35;99.60;;;63.90;;
37303;SDS011;23188;51.188;16.374;2023-03-01T04:23:40;95.00;;;58.40;;
37303;SDS011;23188;51.188;16.374;2023-03-01T04:27:46;87.80;;;55.70;;
37303;SDS011;23188;51.188;16.374;2023-03-01T04:31:49;95.60;;;56.10;;
37303;SDS011;23188;51.188;16.374;2023-03-01T04:35:52;97.50;;;57.40;;
37303;SDS011;23188;51.188;16.374;2023-03-01T04:39:56;90.80;;;55.60;;
37303;SDS011;23188;51.188;16.374;2023-03-01T04:44:00;100.10;;;58.80;;
37303;SDS011;23188;51.188;16.374;2023-03-01T04:48:03;99.10;;;57.90;;
37303;SDS011;23188;51.188;16.374;2023-03-01T04:52:08;98.50;;;55.70;;
37303;SDS011;23188;51.188;16.374;2023-03-01T04:56:12;124.40;;;64.60;;
37303;SDS011;23188;51.188;16.374;2023-03-01T05:00:20;104.00;;;62.70;;
37303;SDS011;23188;51.188;16.374;2023-03-01T05:04:25;104.80;;;60.30;;
37303;SDS011;23188;51.188;16.374;2023-03-01T05:08:28;106.00;;;62.70;;
37303;SDS011;23188;51.188;16.374;2023-03-01T05:12:31;85.10;;;56.20;;
37303;SDS011;23188;51.188;16.374;2023-03-01T05:16:35;99.80;;;60.70;;
37303;SDS011;23188;51.188;16.374;2023-03-01T05:20:39;115.30;;;59.70;;
37303;SDS011;23188;51.188;16.374;2023-03-01T05:24:43;95.40;;;58.60;;
37303;SDS011;23188;51.188;16.374;2023-03-01T05:28:47;111.40;;;63.90;;
37303;SDS011;23188;51.188;16.374;2023-03-01T05:32:51;92.50;;;57.00;;
37303;SDS011;23188;51.188;16.374;2023-03-01T05:36:58;105.40;;;59.10;;
37303;SDS011;23188;51.188;16.374;2023-03-01T05:41:02;96.70;;;62.50;;
37303;SDS011;23188;51.188;16.374;2023-03-01T05:45:06;97.30;;;60.60;;
37303;SDS011;23188;51.188;16.374;2023-03-01T05:49:12;82.10;;;51.00;;
37303;SDS011;23188;51.188;16.374;2023-03-01T05:53:17;88.10;;;56.10;;
37303;SDS011;23188;51.188;16.374;2023-03-01T05:57:23;91.60;;;50.70;;
37303;SDS011;23188;51.188;16.374;2023-03-01T06:01:26;99.80;;;58.70;;
37303;SDS011;23188;51.188;16.374;2023-03-01T06:05:31;96.00;;;56.40;;
37303;SDS011;23188;51.188;16.374;2023-03-01T06:09:34;99.60;;;57.70;;
37303;SDS011;23188;51.188;16.374;2023-03-01T06:13:37;106.30;;;61.80;;
37303;SDS011;23188;51.188;16.374;2023-03-01T06:17:41;105.50;;;65.40;;
37303;SDS011;23188;51.188;16.374;2023-03-01T06:21:46;92.50;;;56.20;;
37303;SDS011;23188;51.188;16.374;2023-03-01T06:25:49;113.50;;;59.60;;
37303;SDS011;23188;51.188;16.374;2023-03-01T06:29:53;85.90;;;54.70;;
37303;SDS011;23188;51.188;16.374;2023-03-01T06:33:56;109.90;;;65.30;;
37303;SDS011;23188;51.188;16.374;2023-03-01T06:38:01;105.30;;;57.00;;
37303;SDS011;23188;51.188;16.374;2023-03-01T06:42:07;94.90;;;60.70;;
37303;SDS011;23188;51.188;16.374;2023-03-01T06:46:10;91.40;;;57.30;;
37303;SDS011;23188;51.188;16.374;2023-03-01T06:50:14;88.60;;;56.50;;
37303;SDS011;23188;51.188;16.374;2023-03-01T06:54:18;104.80;;;58.50;;
37303;SDS011;23188;51.188;16.374;2023-03-01T06:58:24;94.30;;;57.40;;
37303;SDS011;23188;51.188;16.374;2023-03-01T07:02:28;97.20;;;60.90;;
37303;SDS011;23188;51.188;16.374;2023-03-01T07:06:32;105.50;;;64.70;;
37303;SDS011;23188;51.188;16.374;2023-03-01T07:10:36;96.90;;;64.00;;
37303;SDS011;23188;51.188;16.374;2023-03-01T07:14:39;108.60;;;62.10;;
37303;SDS011;23188;51.188;16.374;2023-03-01T07:18:42;80.50;;;52.50;;
37303;SDS011;23188;51.188;16.374;2023-03-01T07:22:46;91.60;;;58.20;;
37303;SDS011;23188;51.188;16.374;2023-03-01T07:26:51;105.00;;;65.50;;
37303;SDS011;23188;51.188;16.374;2023-03-01T07:30:54;103.00;;;61.50;;
37303;SDS011;23188;51.188;16.374;2023-03-01T07:34:57;105.70;;;71.50;;
37303;SDS011;23188;51.188;16.374;2023-03-01T07:39:02;85.70;;;53.20;;
37303;SDS011;23188;51.188;16.374;2023-03-01T07:43:06;90.30;;;55.90;;
37303;SDS011;23188;51.188;16.374;2023-03-01T07:47:10;96.70;;;62.30;;
37303;SDS011;23188;51.188;16.374;2023-03-01T07:51:13;107.70;;;66.00;;
37303;SDS011;23188;51.188;16.374;2023-03-01T07:55:17;98.50;;;61.60;;
37303;SDS011;23188;51.188;16.374;2023-03-01T07:59:20;79.10;;;46.60;;
37303;SDS011;23188;51.188;16.374;2023-03-01T08:03:24;77.80;;;53.40;;
37303;SDS011;23188;51.188;16.374;2023-03-01T08:07:27;90.50;;;54.10;;
37303;SDS011;23188;51.188;16.374;2023-03-01T08:11:31;95.00;;;57.60;;
37303;SDS011;23188;51.188;16.374;2023-03-01T08:15:35;88.70;;;49.70;;
37303;SDS011;23188;51.188;16.374;2023-03-01T08:19:39;74.60;;;48.00;;
37303;SDS011;23188;51.188;16.374;2023-03-01T08:23:42;74.40;;;49.30;;
37303;SDS011;23188;51.188;16.374;2023-03-01T08:27:46;86.00;;;54.00;;
37303;SDS011;23188;51.188;16.374;2023-03-01T08:31:50;85.50;;;52.40;;
37303;SDS011;23188;51.188;16.374;2023-03-01T08:36:02;81.90;;;48.30;;
37303;SDS011;23188;51.188;16.374;2023-03-01T08:40:06;65.60;;;47.60;;
37303;SDS011;23188;51.188;16.374;2023-03-01T08:44:13;72.80;;;45.40;;
37303;SDS011;23188;51.188;16.374;2023-03-01T08:48:19;67.40;;;44.90;;
37303;SDS011;23188;51.188;16.374;2023-03-01T08:52:22;77.80;;;48.10;;
37303;SDS011;23188;51.188;16.374;2023-03-01T08:56:27;74.00;;;49.30;;
37303;SDS011;23188;51.188;16.374;2023-03-01T09:00:30;73.60;;;43.90;;
37303;SDS011;23188;51.188;16.374;2023-03-01T09:08:41;74.80;;;46.30;;
37303;SDS011;23188;51.188;16.374;2023-03-01T09:12:46;69.40;;;43.90;;
37303;SDS011;23188;51.188;16.374;2023-03-01T09:16:50;78.30;;;50.30;;
37303;SDS011;23188;51.188;16.374;2023-03-01T09:21:00;67.80;;;44.70;;
37303;SDS011;23188;51.188;16.374;2023-03-01T09:25:09;75.40;;;46.00;;
37303;SDS011;23188;51.188;16.374;2023-03-01T09:29:13;64.00;;;43.30;;
37303;SDS011;23188;51.188;16.374;2023-03-01T09:33:17;75.50;;;44.80;;
37303;SDS011;23188;51.188;16.374;2023-03-01T09:37:22;79.90;;;45.20;;
37303;SDS011;23188;51.188;16.374;2023-03-01T09:45:53;74.00;;;46.60;;
37303;SDS011;23188;51.188;16.374;2023-03-01T09:50:06;80.70;;;48.50;;
37303;SDS011;23188;51.188;16.374;2023-03-01T09:54:17;72.90;;;43.80;;
37303;SDS011;23188;51.188;16.374;2023-03-01T10:03:09;56.50;;;40.60;;
37303;SDS011;23188;51.188;16.374;2023-03-01T10:12:12;52.20;;;31.50;;
37303;SDS011;23188;51.188;16.374;2023-03-01T10:16:25;50.80;;;32.40;;
37303;SDS011;23188;51.188;16.374;2023-03-01T10:20:42;49.20;;;33.10;;
37303;SDS011;23188;51.188;16.374;2023-03-01T10:24:50;63.30;;;37.80;;
37303;SDS011;23188;51.188;16.374;2023-03-01T10:29:05;53.10;;;34.60;;
37303;SDS011;23188;51.188;16.374;2023-03-01T10:33:17;52.80;;;35.90;;
37303;SDS011;23188;51.188;16.374;2023-03-01T10:37:25;47.20;;;32.00;;
37303;SDS011;23188;51.188;16.374;2023-03-01T10:41:30;57.10;;;36.30;;
37303;SDS011;23188;51.188;16.374;2023-03-01T10:49:51;57.60;;;35.60;;
37303;SDS011;23188;51.188;16.374;2023-03-01T10:53:56;49.40;;;34.60;;
37303;SDS011;23188;51.188;16.374;2023-03-01T10:58:07;57.70;;;35.50;;
37303;SDS011;23188;51.188;16.374;2023-03-01T11:02:28;51.30;;;32.10;;
37303;SDS011;23188;51.188;16.374;2023-03-01T11:06:33;57.80;;;35.60;;
37303;SDS011;23188;51.188;16.374;2023-03-01T11:10:38;53.70;;;35.00;;
37303;SDS011;23188;51.188;16.374;2023-03-01T11:14:48;46.60;;;30.00;;
37303;SDS011;23188;51.188;16.374;2023-03-01T11:18:59;58.30;;;37.20;;
37303;SDS011;23188;51.188;16.374;2023-03-01T11:23:03;53.90;;;33.20;;
37303;SDS011;23188;51.188;16.374;2023-03-01T11:27:22;62.90;;;40.40;;
37303;SDS011;23188;51.188;16.374;2023-03-01T11:31:29;59.20;;;38.40;;
37303;SDS011;23188;51.188;16.374;2023-03-01T11:35:35;53.90;;;36.20;;
37303;SDS011;23188;51.188;16.374;2023-03-01T11:44:01;51.60;;;34.70;;
37303;SDS011;23188;51.188;16.374;2023-03-01T11:52:59;41.70;;;29.70;;
37303;SDS011;23188;51.188;16.374;2023-03-01T12:10:27;41.30;;;27.70;;
37303;SDS011;23188;51.188;16.374;2023-03-01T12:15:00;45.10;;;29.60;;
37303;SDS011;23188;51.188;16.374;2023-03-01T12:19:42;31.60;;;22.90;;
37303;SDS011;23188;51.188;16.374;2023-03-01T12:28:51;40.60;;;22.90;;
37303;SDS011;23188;51.188;16.374;2023-03-01T12:37:42;35.00;;;23.10;;
37303;SDS011;23188;51.188;16.374;2023-03-01T12:41:51;29.30;;;18.20;;
37303;SDS011;23188;51.188;16.374;2023-03-01T12:51:06;41.20;;;26.50;;
37303;SDS011;23188;51.188;16.374;2023-03-01T12:54:43;25.90;;;16.00;;
37303;SDS011;23188;51.188;16.374;2023-03-01T12:58:54;22.70;;;15.60;;
37303;SDS011;23188;51.188;16.374;2023-03-01T13:07:36;23.80;;;15.00;;
37303;SDS011;23188;51.188;16.374;2023-03-01T13:11:57;20.10;;;14.30;;
37303;SDS011;23188;51.188;16.374;2023-03-01T13:16:19;23.30;;;14.50;;
37303;SDS011;23188;51.188;16.374;2023-03-01T13:24:45;17.80;;;12.70;;
37303;SDS011;23188;51.188;16.374;2023-03-01T13:28:49;19.50;;;12.90;;
37303;SDS011;23188;51.188;16.374;2023-03-01T13:37:20;24.80;;;16.60;;
37303;SDS011;23188;51.188;16.374;2023-03-01T13:45:46;22.70;;;14.30;;
37303;SDS011;23188;51.188;16.374;2023-03-01T13:49:59;27.80;;;15.60;;
37303;SDS011;23188;51.188;16.374;2023-03-01T13:54:09;22.80;;;15.30;;
37303;SDS011;23188;51.188;16.374;2023-03-01T14:02:24;26.10;;;17.30;;
37303;SDS011;23188;51.188;16.374;2023-03-01T14:06:31;27.60;;;19.50;;
37303;SDS011;23188;51.188;16.374;2023-03-01T14:10:45;27.40;;;20.20;;
37303;SDS011;23188;51.188;16.374;2023-03-01T14:19:20;21.10;;;14.70;;
37303;SDS011;23188;51.188;16.374;2023-03-01T14:23:37;25.80;;;15.70;;
37303;SDS011;23188;51.188;16.374;2023-03-01T14:27:45;29.40;;;17.50;;
37303;SDS011;23188;51.188;16.374;2023-03-01T14:32:01;23.30;;;15.60;;
37303;SDS011;23188;51.188;16.374;2023-03-01T14:36:25;22.50;;;17.00;;
37303;SDS011;23188;51.188;16.374;2023-03-01T14:40:34;26.50;;;18.10;;
37303;SDS011;23188;51.188;16.374;2023-03-01T14:44:40;26.50;;;18.50;;
37303;SDS011;23188;51.188;16.374;2023-03-01T14:52:52;23.80;;;15.00;;
37303;SDS011;23188;51.188;16.374;2023-03-01T14:57:00;27.60;;;17.20;;
37303;SDS011;23188;51.188;16.374;2023-03-01T15:01:04;26.10;;;19.30;;
37303;SDS011;23188;51.188;16.374;2023-03-01T15:05:07;27.20;;;18.40;;
37303;SDS011;23188;51.188;16.374;2023-03-01T15:09:13;23.80;;;17.50;;
37303;SDS011;23188;51.188;16.374;2023-03-01T15:13:24;28.00;;;17.40;;
37303;SDS011;23188;51.188;16.374;2023-03-01T15:17:30;23.80;;;15.40;;
37303;SDS011;23188;51.188;16.374;2023-03-01T15:21:37;26.40;;;15.80;;
37303;SDS011;23188;51.188;16.374;2023-03-01T15:25:43;23.80;;;18.30;;
37303;SDS011;23188;51.188;16.374;2023-03-01T15:29:48;33.20;;;20.70;;
37303;SDS011;23188;51.188;16.374;2023-03-01T15:42:45;35.70;;;20.70;;
37303;SDS011;23188;51.188;16.374;2023-03-01T15:46:48;29.20;;;19.50;;
37303;SDS011;23188;51.188;16.374;2023-03-01T15:50:55;28.20;;;20.90;;
37303;SDS011;23188;51.188;16.374;2023-03-01T15:55:04;30.40;;;22.10;;
37303;SDS011;23188;51.188;16.374;2023-03-01T15:59:09;35.10;;;24.50;;
37303;SDS011;23188;51.188;16.374;2023-03-01T16:03:17;119.20;;;67.80;;
37303;SDS011;23188;51.188;16.374;2023-03-01T16:07:24;113.60;;;68.20;;
37303;SDS011;23188;51.188;16.374;2023-03-01T16:11:29;109.00;;;60.50;;
37303;SDS011;23188;51.188;16.374;2023-03-01T16:15:34;169.50;;;90.70;;
37303;SDS011;23188;51.188;16.374;2023-03-01T16:19:38;219.70;;;121.80;;
37303;SDS011;23188;51.188;16.374;2023-03-01T16:23:42;309.20;;;166.20;;
37303;SDS011;23188;51.188;16.374;2023-03-01T16:27:47;222.10;;;131.60;;
37303;SDS011;23188;51.188;16.374;2023-03-01T16:31:52;97.40;;;58.20;;
37303;SDS011;23188;51.188;16.374;2023-03-01T16:35:55;66.80;;;40.60;;
37303;SDS011;23188;51.188;16.374;2023-03-01T16:39:59;44.20;;;25.80;;
37303;SDS011;23188;51.188;16.374;2023-03-01T16:44:03;46.50;;;29.90;;
37303;SDS011;23188;51.188;16.374;2023-03-01T16:48:07;43.20;;;29.70;;
37303;SDS011;23188;51.188;16.374;2023-03-01T16:52:11;55.70;;;34.70;;
37303;SDS011;23188;51.188;16.374;2023-03-01T16:56:14;46.20;;;30.90;;
37303;SDS011;23188;51.188;16.374;2023-03-01T17:00:19;51.50;;;31.30;;
37303;SDS011;23188;51.188;16.374;2023-03-01T17:04:23;38.80;;;25.00;;
37303;SDS011;23188;51.188;16.374;2023-03-01T17:08:27;102.50;;;56.50;;
37303;SDS011;23188;51.188;16.374;2023-03-01T17:12:30;76.80;;;45.00;;
37303;SDS011;23188;51.188;16.374;2023-03-01T17:16:34;39.30;;;24.50;;
37303;SDS011;23188;51.188;16.374;2023-03-01T17:20:38;27.70;;;19.50;;
37303;SDS011;23188;51.188;16.374;2023-03-01T17:24:41;25.70;;;17.00;;
37303;SDS011;23188;51.188;16.374;2023-03-01T17:28:45;22.80;;;16.00;;
37303;SDS011;23188;51.188;16.374;2023-03-01T17:32:53;31.20;;;22.00;;
37303;SDS011;23188;51.188;16.374;2023-03-01T17:36:58;35.60;;;24.30;;
37303;SDS011;23188;51.188;16.374;2023-03-01T17:41:01;40.70;;;29.30;;
37303;SDS011;23188;51.188;16.374;2023-03-01T17:45:05;47.70;;;27.30;;
37303;SDS011;23188;51.188;16.374;2023-03-01T17:49:09;48.20;;;27.50;;
37303;SDS011;23188;51.188;16.374;2023-03-01T17:53:12;52.80;;;29.20;;
37303;SDS011;23188;51.188;16.374;2023-03-01T17:57:16;40.80;;;29.10;;
37303;SDS011;23188;51.188;16.374;2023-03-01T18:01:19;50.90;;;29.00;;
37303;SDS011;23188;51.188;16.374;2023-03-01T18:05:23;56.80;;;33.40;;
37303;SDS011;23188;51.188;16.374;2023-03-01T18:09:27;50.40;;;35.10;;
37303;SDS011;23188;51.188;16.374;2023-03-01T18:13:30;53.00;;;33.70;;
37303;SDS011;23188;51.188;16.374;2023-03-01T18:17:33;51.60;;;29.60;;
37303;SDS011;23188;51.188;16.374;2023-03-01T18:21:36;84.40;;;46.30;;
37303;SDS011;23188;51.188;16.374;2023-03-01T18:25:39;173.70;;;91.20;;
37303;SDS011;23188;51.188;16.374;2023-03-01T18:29:43;216.70;;;120.30;;
37303;SDS011;23188;51.188;16.374;2023-03-01T18:33:46;188.80;;;102.80;;
37303;SDS011;23188;51.188;16.374;2023-03-01T18:37:50;137.00;;;75.40;;
37303;SDS011;23188;51.188;16.374;2023-03-01T18:41:53;103.10;;;63.70;;
37303;SDS011;23188;51.188;16.374;2023-03-01T18:45:57;108.50;;;61.20;;
37303;SDS011;23188;51.188;16.374;2023-03-01T18:50:01;79.70;;;53.30;;
37303;SDS011;23188;51.188;16.374;2023-03-01T18:54:05;107.40;;;63.70;;
37303;SDS011;23188;51.188;16.374;2023-03-01T18:58:08;87.80;;;49.70;;
37303;SDS011;23188;51.188;16.374;2023-03-01T19:02:13;64.60;;;39.10;;
37303;SDS011;23188;51.188;16.374;2023-03-01T19:06:17;52.80;;;35.90;;
37303;SDS011;23188;51.188;16.374;2023-03-01T19:10:22;70.10;;;42.80;;
37303;SDS011;23188;51.188;16.374;2023-03-01T19:14:26;57.20;;;39.10;;
37303;SDS011;23188;51.188;16.374;2023-03-01T19:18:29;69.50;;;43.80;;
37303;SDS011;23188;51.188;16.374;2023-03-01T19:22:32;187.20;;;95.80;;
37303;SDS011;23188;51.188;16.374;2023-03-01T19:26:36;145.00;;;79.00;;
37303;SDS011;23188;51.188;16.374;2023-03-01T19:30:39;114.10;;;65.30;;
37303;SDS011;23188;51.188;16.374;2023-03-01T19:34:42;104.50;;;62.30;;
37303;SDS011;23188;51.188;16.374;2023-03-01T19:38:45;95.70;;;59.40;;
37303;SDS011;23188;51.188;16.374;2023-03-01T19:42:49;92.70;;;58.10;;
37303;SDS011;23188;51.188;16.374;2023-03-01T19:46:53;80.00;;;44.00;;
37303;SDS011;23188;51.188;16.374;2023-03-01T19:50:58;102.80;;;58.00;;
37303;SDS011;23188;51.188;16.374;2023-03-01T19:55:02;63.20;;;41.20;;
37303;SDS011;23188;51.188;16.374;2023-03-01T19:59:11;70.60;;;42.20;;
37303;SDS011;23188;51.188;16.374;2023-03-01T20:03:15;75.50;;;46.40;;
37303;SDS011;23188;51.188;16.374;2023-03-01T20:07:18;79.50;;;46.50;;
37303;SDS011;23188;51.188;16.374;2023-03-01T20:11:22;76.50;;;47.40;;
37303;SDS011;23188;51.188;16.374;2023-03-01T20:15:25;97.20;;;57.00;;
37303;SDS011;23188;51.188;16.374;2023-03-01T20:19:28;96.30;;;57.00;;
37303;SDS011;23188;51.188;16.374;2023-03-01T20:23:31;96.90;;;55.00;;
37303;SDS011;23188;51.188;16.374;2023-03-01T20:27:34;79.60;;;51.70;;
37303;SDS011;23188;51.188;16.374;2023-03-01T20:31:37;77.80;;;50.90;;
37303;SDS011;23188;51.188;16.374;2023-03-01T20:35:43;77.40;;;48.80;;
37303;SDS011;23188;51.188;16.374;2023-03-01T20:39:46;66.50;;;41.50;;
37303;SDS011;23188;51.188;16.374;2023-03-01T20:43:49;80.60;;;45.10;;
37303;SDS011;23188;51.188;16.374;2023-03-01T20:47:57;73.30;;;44.70;;
37303;SDS011;23188;51.188;16.374;2023-03-01T20:52:01;65.60;;;41.80;;
37303;SDS011;23188;51.188;16.374;2023-03-01T20:56:08;71.90;;;45.30;;
37303;SDS011;23188;51.188;16.374;2023-03-01T21:00:13;90.10;;;52.20;;
37303;SDS011;23188;51.188;16.374;2023-03-01T21:04:16;87.80;;;48.90;;
37303;SDS011;23188;51.188;16.374;2023-03-01T21:08:20;87.00;;;50.20;;
37303;SDS011;23188;51.188;16.374;2023-03-01T21:12:23;83.70;;;51.40;;
37303;SDS011;23188;51.188;16.374;2023-03-01T21:16:26;75.50;;;45.20;;
37303;SDS011;23188;51.188;16.374;2023-03-01T21:20:30;85.50;;;50.60;;
37303;SDS011;23188;51.188;16.374;2023-03-01T21:24:33;87.00;;;47.70;;
37303;SDS011;23188;51.188;16.374;2023-03-01T21:28:37;68.60;;;39.70;;
37303;SDS011;23188;51.188;16.374;2023-03-01T21:32:41;74.10;;;46.00;;
37303;SDS011;23188;51.188;16.374;2023-03-01T21:36:45;108.30;;;60.50;;
37303;SDS011;23188;51.188;16.374;2023-03-01T21:40:48;89.10;;;52.80;;
37303;SDS011;23188;51.188;16.374;2023-03-01T21:44:51;86.00;;;50.70;;
37303;SDS011;23188;51.188;16.374;2023-03-01T21:48:55;79.90;;;47.50;;
37303;SDS011;23188;51.188;16.374;2023-03-01T21:52:58;65.40;;;43.70;;
37303;SDS011;23188;51.188;16.374;2023-03-01T21:57:06;57.50;;;35.90;;
37303;SDS011;23188;51.188;16.374;2023-03-01T22:01:12;88.50;;;49.10;;
37303;SDS011;23188;51.188;16.374;2023-03-01T22:05:17;105.50;;;55.50;;
37303;SDS011;23188;51.188;16.374;2023-03-01T22:09:21;92.70;;;51.50;;
37303;SDS011;23188;51.188;16.374;2023-03-01T22:13:25;81.80;;;48.80;;
37303;SDS011;23188;51.188;16.374;2023-03-01T22:17:28;91.40;;;52.30;;
37303;SDS011;23188;51.188;16.374;2023-03-01T22:21:32;102.70;;;55.90;;
37303;SDS011;23188;51.188;16.374;2023-03-01T22:25:39;104.40;;;63.50;;
37303;SDS011;23188;51.188;16.374;2023-03-01T22:29:44;115.40;;;66.10;;
37303;SDS011;23188;51.188;16.374;2023-03-01T22:33:47;103.80;;;60.00;;
37303;SDS011;23188;51.188;16.374;2023-03-01T22:37:51;92.10;;;58.20;;
37303;SDS011;23188;51.188;16.374;2023-03-01T22:41:54;98.90;;;55.60;;
37303;SDS011;23188;51.188;16.374;2023-03-01T22:45:58;99.10;;;57.10;;
37303;SDS011;23188;51.188;16.374;2023-03-01T22:50:03;110.10;;;60.60;;
37303;SDS011;23188;51.188;16.374;2023-03-01T22:54:09;100.30;;;59.20;;
37303;SDS011;23188;51.188;16.374;2023-03-01T22:58:13;80.20;;;48.70;;
37303;SDS011;23188;51.188;16.374;2023-03-01T23:02:16;98.80;;;56.70;;
37303;SDS011;23188;51.188;16.374;2023-03-01T23:06:20;87.70;;;52.10;;
37303;SDS011;23188;51.188;16.374;2023-03-01T23:10:23;88.10;;;51.10;;
37303;SDS011;23188;51.188;16.374;2023-03-01T23:14:28;95.70;;;52.40;;
37303;SDS011;23188;51.188;16.374;2023-03-01T23:18:32;75.30;;;45.70;;
37303;SDS011;23188;51.188;16.374;2023-03-01T23:22:36;74.20;;;47.60;;
37303;SDS011;23188;51.188;16.374;2023-03-01T23:26:39;74.30;;;46.80;;
37303;SDS011;23188;51.188;16.374;2023-03-01T23:30:51;77.50;;;47.20;;
37303;SDS011;23188;51.188;16.374;2023-03-01T23:34:55;78.00;;;47.20;;
37303;SDS011;23188;51.188;16.374;2023-03-01T23:38:59;80.60;;;47.60;;
37303;SDS011;23188;51.188;16.374;2023-03-01T23:43:06;67.40;;;42.60;;
37303;SDS011;23188;51.188;16.374;2023-03-01T23:47:09;92.20;;;54.30;;
37303;SDS011;23188;51.188;16.374;2023-03-01T23:51:14;105.70;;;55.50;;
37303;SDS011;23188;51.188;16.374;2023-03-01T23:55:19;85.40;;;48.90;;
37303;SDS011;23188;51.188;16.374;2023-03-01T23:59:24;87.20;;;50.10;;
